sensor_id;sensor_type;location;lat;lon;timestamp;P1;durP1;ratioP1;P2;durP2;ratioP2
77322;SDS011;66384;51.052;9.850;2023-04-25T00:00:08;5.00;;;3.30;;
77322;SDS011;66384;51.052;9.850;2023-04-25T00:02:39;4.30;;;2.60;;
77322;SDS011;66384;51.052;9.850;2023-04-25T00:05:09;4.80;;;3.10;;
77322;SDS011;66384;51.052;9.850;2023-04-25T00:07:38;7.10;;;3.30;;
77322;SDS011;66384;51.052;9.850;2023-04-25T00:10:09;4.20;;;3.10;;
77322;SDS011;66384;51.052;9.850;2023-04-25T00:12:39;3.30;;;2.70;;
77322;SDS011;66384;51.052;9.850;2023-04-25T00:15:09;6.60;;;3.60;;
77322;SDS011;66384;51.052;9.850;2023-04-25T00:17:39;5.30;;;3.60;;
77322;SDS011;66384;51.052;9.850;2023-04-25T00:20:09;4.70;;;3.40;;
77322;SDS011;66384;51.052;9.850;2023-04-25T00:22:40;4.30;;;3.10;;
77322;SDS011;66384;51.052;9.850;2023-04-25T00:25:09;4.40;;;3.40;;
77322;SDS011;66384;51.052;9.850;2023-04-25T00:27:38;4.60;;;3.50;;
77322;SDS011;66384;51.052;9.850;2023-04-25T00:30:09;6.70;;;3.30;;
77322;SDS011;66384;51.052;9.850;2023-04-25T00:32:40;4.90;;;3.40;;
77322;SDS011;66384;51.052;9.850;2023-04-25T00:35:09;5.10;;;3.60;;
77322;SDS011;66384;51.052;9.850;2023-04-25T00:37:39;5.70;;;3.40;;
77322;SDS011;66384;51.052;9.850;2023-04-25T00:40:09;8.00;;;3.50;;
77322;SDS011;66384;51.052;9.850;2023-04-25T00:42:38;4.40;;;3.40;;
77322;SDS011;66384;51.052;9.850;2023-04-25T00:45:09;5.60;;;3.70;;
77322;SDS011;66384;51.052;9.850;2023-04-25T00:47:42;4.90;;;3.60;;
77322;SDS011;66384;51.052;9.850;2023-04-25T00:50:12;4.90;;;3.10;;
77322;SDS011;66384;51.052;9.850;2023-04-25T00:52:42;7.70;;;3.50;;
77322;SDS011;66384;51.052;9.850;2023-04-25T00:55:12;8.00;;;3.50;;
77322;SDS011;66384;51.052;9.850;2023-04-25T00:57:42;4.20;;;2.90;;
77322;SDS011;66384;51.052;9.850;2023-04-25T01:00:12;5.30;;;3.30;;
77322;SDS011;66384;51.052;9.850;2023-04-25T01:02:42;5.10;;;3.30;;
77322;SDS011;66384;51.052;9.850;2023-04-25T01:05:12;6.20;;;3.20;;
77322;SDS011;66384;51.052;9.850;2023-04-25T01:07:42;4.80;;;2.80;;
77322;SDS011;66384;51.052;9.850;2023-04-25T01:10:12;5.00;;;3.30;;
77322;SDS011;66384;51.052;9.850;2023-04-25T01:12:41;5.60;;;3.20;;
77322;SDS011;66384;51.052;9.850;2023-04-25T01:15:11;4.50;;;3.30;;
77322;SDS011;66384;51.052;9.850;2023-04-25T01:17:40;5.90;;;3.40;;
77322;SDS011;66384;51.052;9.850;2023-04-25T01:20:11;3.90;;;2.80;;
77322;SDS011;66384;51.052;9.850;2023-04-25T01:22:41;4.70;;;3.20;;
77322;SDS011;66384;51.052;9.850;2023-04-25T01:25:11;5.10;;;4.10;;
77322;SDS011;66384;51.052;9.850;2023-04-25T01:27:40;5.50;;;3.70;;
77322;SDS011;66384;51.052;9.850;2023-04-25T01:30:10;4.90;;;3.40;;
77322;SDS011;66384;51.052;9.850;2023-04-25T01:32:40;4.40;;;2.90;;
77322;SDS011;66384;51.052;9.850;2023-04-25T01:35:11;5.70;;;3.70;;
77322;SDS011;66384;51.052;9.850;2023-04-25T01:37:42;4.80;;;3.40;;
77322;SDS011;66384;51.052;9.850;2023-04-25T01:40:12;5.10;;;3.30;;
77322;SDS011;66384;51.052;9.850;2023-04-25T01:42:42;7.10;;;3.40;;
77322;SDS011;66384;51.052;9.850;2023-04-25T01:45:12;5.90;;;3.00;;
77322;SDS011;66384;51.052;9.850;2023-04-25T01:47:42;4.10;;;2.90;;
77322;SDS011;66384;51.052;9.850;2023-04-25T01:50:15;5.40;;;3.50;;
77322;SDS011;66384;51.052;9.850;2023-04-25T01:52:46;5.60;;;3.30;;
77322;SDS011;66384;51.052;9.850;2023-04-25T01:55:15;3.80;;;3.00;;
77322;SDS011;66384;51.052;9.850;2023-04-25T01:57:45;5.50;;;3.30;;
77322;SDS011;66384;51.052;9.850;2023-04-25T02:00:14;4.70;;;3.50;;
77322;SDS011;66384;51.052;9.850;2023-04-25T02:02:44;4.30;;;2.80;;
77322;SDS011;66384;51.052;9.850;2023-04-25T02:05:14;4.70;;;3.00;;
77322;SDS011;66384;51.052;9.850;2023-04-25T02:07:44;4.00;;;2.80;;
77322;SDS011;66384;51.052;9.850;2023-04-25T02:10:13;5.00;;;3.10;;
77322;SDS011;66384;51.052;9.850;2023-04-25T02:12:42;5.00;;;3.50;;
77322;SDS011;66384;51.052;9.850;2023-04-25T02:15:12;3.60;;;2.70;;
77322;SDS011;66384;51.052;9.850;2023-04-25T02:17:41;4.80;;;3.30;;
77322;SDS011;66384;51.052;9.850;2023-04-25T02:20:12;4.20;;;2.90;;
77322;SDS011;66384;51.052;9.850;2023-04-25T02:22:42;4.70;;;3.00;;
77322;SDS011;66384;51.052;9.850;2023-04-25T02:25:12;4.50;;;2.30;;
77322;SDS011;66384;51.052;9.850;2023-04-25T02:27:42;5.90;;;2.90;;
77322;SDS011;66384;51.052;9.850;2023-04-25T02:30:12;7.10;;;3.50;;
77322;SDS011;66384;51.052;9.850;2023-04-25T02:32:42;6.10;;;3.40;;
77322;SDS011;66384;51.052;9.850;2023-04-25T02:35:11;5.60;;;3.00;;
77322;SDS011;66384;51.052;9.850;2023-04-25T02:37:41;5.60;;;3.20;;
77322;SDS011;66384;51.052;9.850;2023-04-25T02:40:12;5.10;;;3.00;;
77322;SDS011;66384;51.052;9.850;2023-04-25T02:42:41;4.90;;;3.50;;
77322;SDS011;66384;51.052;9.850;2023-04-25T02:45:12;4.60;;;3.40;;
77322;SDS011;66384;51.052;9.850;2023-04-25T02:47:41;7.90;;;3.20;;
77322;SDS011;66384;51.052;9.850;2023-04-25T02:50:11;3.90;;;2.80;;
77322;SDS011;66384;51.052;9.850;2023-04-25T02:52:40;4.30;;;3.20;;
77322;SDS011;66384;51.052;9.850;2023-04-25T02:55:10;6.50;;;3.00;;
77322;SDS011;66384;51.052;9.850;2023-04-25T02:57:39;4.80;;;3.60;;
77322;SDS011;66384;51.052;9.850;2023-04-25T03:00:10;4.90;;;3.30;;
77322;SDS011;66384;51.052;9.850;2023-04-25T03:02:40;5.50;;;3.70;;
77322;SDS011;66384;51.052;9.850;2023-04-25T03:05:09;4.30;;;3.20;;
77322;SDS011;66384;51.052;9.850;2023-04-25T03:07:39;4.20;;;3.10;;
77322;SDS011;66384;51.052;9.850;2023-04-25T03:10:10;6.40;;;3.90;;
77322;SDS011;66384;51.052;9.850;2023-04-25T03:12:40;4.50;;;3.10;;
77322;SDS011;66384;51.052;9.850;2023-04-25T03:15:10;5.00;;;3.20;;
77322;SDS011;66384;51.052;9.850;2023-04-25T03:17:39;4.80;;;3.20;;
77322;SDS011;66384;51.052;9.850;2023-04-25T03:20:09;4.40;;;3.10;;
77322;SDS011;66384;51.052;9.850;2023-04-25T03:25:08;3.90;;;2.50;;
77322;SDS011;66384;51.052;9.850;2023-04-25T03:27:37;5.50;;;3.10;;
77322;SDS011;66384;51.052;9.850;2023-04-25T03:30:07;4.50;;;3.50;;
77322;SDS011;66384;51.052;9.850;2023-04-25T03:32:37;4.30;;;3.10;;
77322;SDS011;66384;51.052;9.850;2023-04-25T03:35:07;5.20;;;3.40;;
77322;SDS011;66384;51.052;9.850;2023-04-25T03:37:36;4.60;;;3.40;;
77322;SDS011;66384;51.052;9.850;2023-04-25T03:40:07;4.50;;;3.50;;
77322;SDS011;66384;51.052;9.850;2023-04-25T03:42:37;4.50;;;3.30;;
77322;SDS011;66384;51.052;9.850;2023-04-25T03:45:08;6.00;;;3.30;;
77322;SDS011;66384;51.052;9.850;2023-04-25T03:47:38;5.70;;;3.20;;
77322;SDS011;66384;51.052;9.850;2023-04-25T03:50:08;7.30;;;3.80;;
77322;SDS011;66384;51.052;9.850;2023-04-25T03:52:37;4.80;;;3.30;;
77322;SDS011;66384;51.052;9.850;2023-04-25T03:55:07;7.50;;;3.70;;
77322;SDS011;66384;51.052;9.850;2023-04-25T03:57:37;4.20;;;2.80;;
77322;SDS011;66384;51.052;9.850;2023-04-25T04:00:08;4.40;;;2.60;;
77322;SDS011;66384;51.052;9.850;2023-04-25T04:02:38;5.20;;;2.80;;
77322;SDS011;66384;51.052;9.850;2023-04-25T04:05:08;4.40;;;2.90;;
77322;SDS011;66384;51.052;9.850;2023-04-25T04:07:37;4.50;;;3.10;;
77322;SDS011;66384;51.052;9.850;2023-04-25T04:10:09;6.10;;;3.30;;
77322;SDS011;66384;51.052;9.850;2023-04-25T04:12:39;6.00;;;3.00;;
77322;SDS011;66384;51.052;9.850;2023-04-25T04:15:09;5.70;;;3.20;;
77322;SDS011;66384;51.052;9.850;2023-04-25T04:17:39;6.30;;;3.60;;
77322;SDS011;66384;51.052;9.850;2023-04-25T04:20:09;8.50;;;3.30;;
77322;SDS011;66384;51.052;9.850;2023-04-25T04:22:39;6.00;;;3.20;;
77322;SDS011;66384;51.052;9.850;2023-04-25T04:25:08;4.80;;;3.50;;
77322;SDS011;66384;51.052;9.850;2023-04-25T04:27:38;5.00;;;3.20;;
77322;SDS011;66384;51.052;9.850;2023-04-25T04:30:08;4.80;;;3.00;;
77322;SDS011;66384;51.052;9.850;2023-04-25T04:32:38;4.70;;;2.80;;
77322;SDS011;66384;51.052;9.850;2023-04-25T04:35:08;7.00;;;3.30;;
77322;SDS011;66384;51.052;9.850;2023-04-25T04:37:37;4.00;;;3.20;;
77322;SDS011;66384;51.052;9.850;2023-04-25T04:40:08;6.10;;;3.80;;
77322;SDS011;66384;51.052;9.850;2023-04-25T04:42:38;6.60;;;3.50;;
77322;SDS011;66384;51.052;9.850;2023-04-25T04:45:08;6.90;;;3.10;;
77322;SDS011;66384;51.052;9.850;2023-04-25T04:47:39;4.70;;;3.10;;
77322;SDS011;66384;51.052;9.850;2023-04-25T04:50:10;4.70;;;3.10;;
77322;SDS011;66384;51.052;9.850;2023-04-25T04:52:39;4.50;;;3.00;;
77322;SDS011;66384;51.052;9.850;2023-04-25T04:55:09;18.70;;;13.10;;
77322;SDS011;66384;51.052;9.850;2023-04-25T04:57:38;9.00;;;5.70;;
77322;SDS011;66384;51.052;9.850;2023-04-25T05:00:09;6.10;;;4.00;;
77322;SDS011;66384;51.052;9.850;2023-04-25T05:02:39;8.30;;;4.40;;
77322;SDS011;66384;51.052;9.850;2023-04-25T05:05:09;5.40;;;3.80;;
77322;SDS011;66384;51.052;9.850;2023-04-25T05:07:38;7.20;;;4.00;;
77322;SDS011;66384;51.052;9.850;2023-04-25T05:10:08;3.50;;;2.50;;
77322;SDS011;66384;51.052;9.850;2023-04-25T05:12:37;5.80;;;3.50;;
77322;SDS011;66384;51.052;9.850;2023-04-25T05:15:07;7.40;;;3.50;;
77322;SDS011;66384;51.052;9.850;2023-04-25T05:17:37;6.00;;;3.00;;
77322;SDS011;66384;51.052;9.850;2023-04-25T05:20:08;12.40;;;4.90;;
77322;SDS011;66384;51.052;9.850;2023-04-25T05:22:37;9.70;;;5.80;;
77322;SDS011;66384;51.052;9.850;2023-04-25T05:25:08;8.30;;;4.40;;
77322;SDS011;66384;51.052;9.850;2023-04-25T05:27:38;8.30;;;4.30;;
77322;SDS011;66384;51.052;9.850;2023-04-25T05:30:08;9.10;;;4.30;;
77322;SDS011;66384;51.052;9.850;2023-04-25T05:32:38;5.60;;;3.50;;
77322;SDS011;66384;51.052;9.850;2023-04-25T05:35:08;11.70;;;5.10;;
77322;SDS011;66384;51.052;9.850;2023-04-25T05:37:37;8.70;;;4.00;;
77322;SDS011;66384;51.052;9.850;2023-04-25T05:40:08;8.40;;;4.00;;
77322;SDS011;66384;51.052;9.850;2023-04-25T05:42:38;6.30;;;3.80;;
77322;SDS011;66384;51.052;9.850;2023-04-25T05:45:08;8.40;;;4.00;;
77322;SDS011;66384;51.052;9.850;2023-04-25T05:47:37;8.10;;;4.50;;
77322;SDS011;66384;51.052;9.850;2023-04-25T05:50:08;9.60;;;3.90;;
77322;SDS011;66384;51.052;9.850;2023-04-25T05:52:38;7.60;;;3.60;;
77322;SDS011;66384;51.052;9.850;2023-04-25T05:55:08;7.50;;;3.00;;
77322;SDS011;66384;51.052;9.850;2023-04-25T05:57:37;7.70;;;4.10;;
77322;SDS011;66384;51.052;9.850;2023-04-25T06:00:09;6.70;;;4.20;;
77322;SDS011;66384;51.052;9.850;2023-04-25T06:02:39;6.10;;;3.40;;
77322;SDS011;66384;51.052;9.850;2023-04-25T06:05:09;8.00;;;4.20;;
77322;SDS011;66384;51.052;9.850;2023-04-25T06:07:39;7.00;;;4.10;;
77322;SDS011;66384;51.052;9.850;2023-04-25T06:10:09;7.30;;;3.70;;
77322;SDS011;66384;51.052;9.850;2023-04-25T06:12:38;5.90;;;3.60;;
77322;SDS011;66384;51.052;9.850;2023-04-25T06:15:08;8.50;;;4.50;;
77322;SDS011;66384;51.052;9.850;2023-04-25T06:17:38;8.20;;;4.80;;
77322;SDS011;66384;51.052;9.850;2023-04-25T06:20:09;14.00;;;6.50;;
77322;SDS011;66384;51.052;9.850;2023-04-25T06:22:39;10.50;;;6.10;;
77322;SDS011;66384;51.052;9.850;2023-04-25T06:25:08;8.50;;;5.10;;
77322;SDS011;66384;51.052;9.850;2023-04-25T06:27:38;9.50;;;5.10;;
77322;SDS011;66384;51.052;9.850;2023-04-25T06:30:08;8.30;;;5.00;;
77322;SDS011;66384;51.052;9.850;2023-04-25T06:32:39;9.00;;;5.20;;
77322;SDS011;66384;51.052;9.850;2023-04-25T06:35:08;8.80;;;5.40;;
77322;SDS011;66384;51.052;9.850;2023-04-25T06:37:39;9.20;;;4.10;;
77322;SDS011;66384;51.052;9.850;2023-04-25T06:40:09;7.50;;;4.60;;
77322;SDS011;66384;51.052;9.850;2023-04-25T06:42:38;6.70;;;4.30;;
77322;SDS011;66384;51.052;9.850;2023-04-25T06:45:09;8.30;;;4.20;;
77322;SDS011;66384;51.052;9.850;2023-04-25T06:50:07;7.50;;;4.30;;
77322;SDS011;66384;51.052;9.850;2023-04-25T06:52:37;8.60;;;4.60;;
77322;SDS011;66384;51.052;9.850;2023-04-25T06:55:07;11.70;;;5.40;;
77322;SDS011;66384;51.052;9.850;2023-04-25T06:57:37;7.90;;;4.70;;
77322;SDS011;66384;51.052;9.850;2023-04-25T07:00:07;8.60;;;4.20;;
77322;SDS011;66384;51.052;9.850;2023-04-25T07:02:38;10.30;;;4.40;;
77322;SDS011;66384;51.052;9.850;2023-04-25T07:05:09;6.20;;;3.80;;
77322;SDS011;66384;51.052;9.850;2023-04-25T07:07:39;6.30;;;4.50;;
77322;SDS011;66384;51.052;9.850;2023-04-25T07:10:08;5.40;;;3.50;;
77322;SDS011;66384;51.052;9.850;2023-04-25T07:12:38;5.70;;;3.40;;
77322;SDS011;66384;51.052;9.850;2023-04-25T07:15:08;6.20;;;3.70;;
77322;SDS011;66384;51.052;9.850;2023-04-25T07:17:38;7.80;;;4.70;;
77322;SDS011;66384;51.052;9.850;2023-04-25T07:20:08;6.80;;;4.30;;
77322;SDS011;66384;51.052;9.850;2023-04-25T07:22:38;9.30;;;5.00;;
77322;SDS011;66384;51.052;9.850;2023-04-25T07:25:07;15.40;;;4.60;;
77322;SDS011;66384;51.052;9.850;2023-04-25T07:27:37;6.80;;;4.20;;
77322;SDS011;66384;51.052;9.850;2023-04-25T07:30:08;5.40;;;3.50;;
77322;SDS011;66384;51.052;9.850;2023-04-25T07:32:38;6.90;;;3.40;;
77322;SDS011;66384;51.052;9.850;2023-04-25T07:35:08;7.00;;;3.10;;
77322;SDS011;66384;51.052;9.850;2023-04-25T07:37:38;6.40;;;3.40;;
77322;SDS011;66384;51.052;9.850;2023-04-25T07:40:08;3.90;;;2.10;;
77322;SDS011;66384;51.052;9.850;2023-04-25T07:42:38;5.50;;;2.60;;
77322;SDS011;66384;51.052;9.850;2023-04-25T07:45:08;9.60;;;4.00;;
77322;SDS011;66384;51.052;9.850;2023-04-25T07:50:07;9.20;;;4.70;;
77322;SDS011;66384;51.052;9.850;2023-04-25T07:52:37;6.10;;;3.30;;
77322;SDS011;66384;51.052;9.850;2023-04-25T07:55:07;4.50;;;2.70;;
77322;SDS011;66384;51.052;9.850;2023-04-25T07:57:37;7.50;;;2.90;;
77322;SDS011;66384;51.052;9.850;2023-04-25T08:00:09;19.00;;;10.10;;
77322;SDS011;66384;51.052;9.850;2023-04-25T08:02:41;7.60;;;4.50;;
77322;SDS011;66384;51.052;9.850;2023-04-25T08:05:10;8.50;;;4.50;;
77322;SDS011;66384;51.052;9.850;2023-04-25T08:07:41;13.00;;;4.30;;
77322;SDS011;66384;51.052;9.850;2023-04-25T08:10:10;8.10;;;4.00;;
77322;SDS011;66384;51.052;9.850;2023-04-25T08:12:40;8.30;;;4.20;;
77322;SDS011;66384;51.052;9.850;2023-04-25T08:15:09;11.20;;;4.20;;
77322;SDS011;66384;51.052;9.850;2023-04-25T08:17:40;13.60;;;4.60;;
77322;SDS011;66384;51.052;9.850;2023-04-25T08:20:11;11.80;;;4.70;;
77322;SDS011;66384;51.052;9.850;2023-04-25T08:22:41;7.60;;;3.70;;
77322;SDS011;66384;51.052;9.850;2023-04-25T08:25:10;10.10;;;3.30;;
77322;SDS011;66384;51.052;9.850;2023-04-25T08:27:39;6.40;;;3.20;;
77322;SDS011;66384;51.052;9.850;2023-04-25T08:30:09;4.20;;;2.60;;
77322;SDS011;66384;51.052;9.850;2023-04-25T08:32:39;5.40;;;2.70;;
77322;SDS011;66384;51.052;9.850;2023-04-25T08:35:09;11.30;;;4.20;;
77322;SDS011;66384;51.052;9.850;2023-04-25T08:37:38;7.10;;;3.00;;
77322;SDS011;66384;51.052;9.850;2023-04-25T08:40:08;10.20;;;4.50;;
77322;SDS011;66384;51.052;9.850;2023-04-25T08:42:42;7.10;;;2.30;;
77322;SDS011;66384;51.052;9.850;2023-04-25T08:45:11;7.40;;;2.50;;
77322;SDS011;66384;51.052;9.850;2023-04-25T08:47:41;5.80;;;3.40;;
77322;SDS011;66384;51.052;9.850;2023-04-25T08:50:13;8.50;;;3.10;;
77322;SDS011;66384;51.052;9.850;2023-04-25T08:52:44;9.00;;;2.40;;
77322;SDS011;66384;51.052;9.850;2023-04-25T08:55:14;10.60;;;3.70;;
77322;SDS011;66384;51.052;9.850;2023-04-25T08:57:45;6.20;;;2.60;;
77322;SDS011;66384;51.052;9.850;2023-04-25T09:00:15;8.90;;;4.40;;
77322;SDS011;66384;51.052;9.850;2023-04-25T09:02:46;9.10;;;3.60;;
77322;SDS011;66384;51.052;9.850;2023-04-25T09:05:15;8.00;;;2.90;;
77322;SDS011;66384;51.052;9.850;2023-04-25T09:07:46;7.40;;;3.10;;
77322;SDS011;66384;51.052;9.850;2023-04-25T09:10:15;7.20;;;2.90;;
77322;SDS011;66384;51.052;9.850;2023-04-25T09:12:44;10.10;;;3.70;;
77322;SDS011;66384;51.052;9.850;2023-04-25T09:15:28;9.80;;;4.30;;
77322;SDS011;66384;51.052;9.850;2023-04-25T09:17:59;12.20;;;5.10;;
77322;SDS011;66384;51.052;9.850;2023-04-25T09:20:28;9.70;;;4.80;;
77322;SDS011;66384;51.052;9.850;2023-04-25T09:23:04;13.20;;;5.50;;
77322;SDS011;66384;51.052;9.850;2023-04-25T09:25:37;16.00;;;6.20;;
77322;SDS011;66384;51.052;9.850;2023-04-25T09:28:06;18.90;;;7.60;;
77322;SDS011;66384;51.052;9.850;2023-04-25T09:30:36;12.80;;;6.20;;
77322;SDS011;66384;51.052;9.850;2023-04-25T09:33:06;10.70;;;4.10;;
77322;SDS011;66384;51.052;9.850;2023-04-25T09:35:36;12.70;;;3.70;;
77322;SDS011;66384;51.052;9.850;2023-04-25T09:38:11;11.20;;;4.00;;
77322;SDS011;66384;51.052;9.850;2023-04-25T09:40:45;10.20;;;3.20;;
77322;SDS011;66384;51.052;9.850;2023-04-25T09:43:19;7.90;;;3.20;;
77322;SDS011;66384;51.052;9.850;2023-04-25T09:45:50;7.70;;;3.00;;
77322;SDS011;66384;51.052;9.850;2023-04-25T09:48:23;8.30;;;3.00;;
77322;SDS011;66384;51.052;9.850;2023-04-25T09:51:05;6.40;;;2.80;;
77322;SDS011;66384;51.052;9.850;2023-04-25T09:53:36;8.30;;;3.60;;
77322;SDS011;66384;51.052;9.850;2023-04-25T09:56:07;9.90;;;3.10;;
77322;SDS011;66384;51.052;9.850;2023-04-25T10:01:06;6.70;;;2.60;;
77322;SDS011;66384;51.052;9.850;2023-04-25T10:03:37;4.90;;;2.10;;
77322;SDS011;66384;51.052;9.850;2023-04-25T10:06:08;8.40;;;2.80;;
77322;SDS011;66384;51.052;9.850;2023-04-25T10:08:40;8.90;;;4.10;;
77322;SDS011;66384;51.052;9.850;2023-04-25T10:11:11;8.30;;;3.40;;
77322;SDS011;66384;51.052;9.850;2023-04-25T10:16:10;7.50;;;2.50;;
77322;SDS011;66384;51.052;9.850;2023-04-25T10:18:40;9.10;;;3.70;;
77322;SDS011;66384;51.052;9.850;2023-04-25T10:21:10;8.70;;;3.10;;
77322;SDS011;66384;51.052;9.850;2023-04-25T10:23:40;6.60;;;3.00;;
77322;SDS011;66384;51.052;9.850;2023-04-25T10:26:10;7.70;;;2.70;;
77322;SDS011;66384;51.052;9.850;2023-04-25T10:31:24;7.20;;;2.60;;
77322;SDS011;66384;51.052;9.850;2023-04-25T10:33:54;8.10;;;3.10;;
77322;SDS011;66384;51.052;9.850;2023-04-25T10:36:24;6.90;;;3.30;;
77322;SDS011;66384;51.052;9.850;2023-04-25T10:38:55;9.00;;;2.50;;
77322;SDS011;66384;51.052;9.850;2023-04-25T10:41:33;7.70;;;3.70;;
77322;SDS011;66384;51.052;9.850;2023-04-25T10:44:15;14.40;;;7.30;;
77322;SDS011;66384;51.052;9.850;2023-04-25T10:46:45;38.30;;;14.10;;
77322;SDS011;66384;51.052;9.850;2023-04-25T10:52:16;70.00;;;35.90;;
77322;SDS011;66384;51.052;9.850;2023-04-25T10:54:52;38.50;;;20.50;;
77322;SDS011;66384;51.052;9.850;2023-04-25T10:57:30;26.60;;;16.70;;
77322;SDS011;66384;51.052;9.850;2023-04-25T11:00:06;13.10;;;5.40;;
77322;SDS011;66384;51.052;9.850;2023-04-25T11:02:39;6.70;;;2.90;;
77322;SDS011;66384;51.052;9.850;2023-04-25T11:05:11;10.40;;;4.40;;
77322;SDS011;66384;51.052;9.850;2023-04-25T11:07:50;8.70;;;3.30;;
77322;SDS011;66384;51.052;9.850;2023-04-25T11:10:23;8.60;;;3.50;;
77322;SDS011;66384;51.052;9.850;2023-04-25T11:12:54;7.30;;;3.10;;
77322;SDS011;66384;51.052;9.850;2023-04-25T11:15:24;6.90;;;2.70;;
77322;SDS011;66384;51.052;9.850;2023-04-25T11:17:55;6.70;;;2.60;;
77322;SDS011;66384;51.052;9.850;2023-04-25T11:20:26;11.20;;;2.80;;
77322;SDS011;66384;51.052;9.850;2023-04-25T11:22:56;9.60;;;4.60;;
77322;SDS011;66384;51.052;9.850;2023-04-25T11:25:27;9.90;;;4.10;;
77322;SDS011;66384;51.052;9.850;2023-04-25T11:27:57;10.20;;;3.40;;
77322;SDS011;66384;51.052;9.850;2023-04-25T11:30:27;9.80;;;4.70;;
77322;SDS011;66384;51.052;9.850;2023-04-25T11:32:57;7.80;;;3.60;;
77322;SDS011;66384;51.052;9.850;2023-04-25T11:35:27;12.40;;;5.10;;
77322;SDS011;66384;51.052;9.850;2023-04-25T11:37:56;7.90;;;4.00;;
77322;SDS011;66384;51.052;9.850;2023-04-25T11:40:25;11.90;;;5.30;;
77322;SDS011;66384;51.052;9.850;2023-04-25T11:42:55;12.80;;;5.60;;
77322;SDS011;66384;51.052;9.850;2023-04-25T11:45:27;6.60;;;3.80;;
77322;SDS011;66384;51.052;9.850;2023-04-25T11:47:58;10.20;;;3.50;;
77322;SDS011;66384;51.052;9.850;2023-04-25T11:52:57;11.40;;;6.10;;
77322;SDS011;66384;51.052;9.850;2023-04-25T11:55:26;8.20;;;3.80;;
77322;SDS011;66384;51.052;9.850;2023-04-25T11:57:59;10.30;;;4.10;;
77322;SDS011;66384;51.052;9.850;2023-04-25T12:00:31;10.10;;;3.60;;
77322;SDS011;66384;51.052;9.850;2023-04-25T12:03:00;8.10;;;3.70;;
77322;SDS011;66384;51.052;9.850;2023-04-25T12:05:30;4.30;;;2.40;;
77322;SDS011;66384;51.052;9.850;2023-04-25T12:08:13;5.60;;;2.40;;
77322;SDS011;66384;51.052;9.850;2023-04-25T12:10:43;7.90;;;2.40;;
77322;SDS011;66384;51.052;9.850;2023-04-25T12:13:21;8.90;;;3.40;;
77322;SDS011;66384;51.052;9.850;2023-04-25T12:15:52;3.40;;;2.00;;
77322;SDS011;66384;51.052;9.850;2023-04-25T12:18:24;5.20;;;1.90;;
77322;SDS011;66384;51.052;9.850;2023-04-25T12:20:54;9.00;;;2.50;;
77322;SDS011;66384;51.052;9.850;2023-04-25T12:23:27;6.30;;;3.00;;
77322;SDS011;66384;51.052;9.850;2023-04-25T12:25:56;5.70;;;2.30;;
77322;SDS011;66384;51.052;9.850;2023-04-25T12:28:25;5.70;;;2.70;;
77322;SDS011;66384;51.052;9.850;2023-04-25T12:30:57;4.20;;;2.80;;
77322;SDS011;66384;51.052;9.850;2023-04-25T12:33:28;6.20;;;3.20;;
77322;SDS011;66384;51.052;9.850;2023-04-25T12:36:01;7.30;;;2.40;;
77322;SDS011;66384;51.052;9.850;2023-04-25T12:38:37;4.00;;;2.20;;
77322;SDS011;66384;51.052;9.850;2023-04-25T12:41:08;4.80;;;2.60;;
77322;SDS011;66384;51.052;9.850;2023-04-25T12:43:38;5.10;;;2.20;;
77322;SDS011;66384;51.052;9.850;2023-04-25T12:46:07;6.30;;;2.30;;
77322;SDS011;66384;51.052;9.850;2023-04-25T12:48:36;7.70;;;2.40;;
77322;SDS011;66384;51.052;9.850;2023-04-25T12:51:05;5.70;;;2.60;;
77322;SDS011;66384;51.052;9.850;2023-04-25T12:53:35;5.40;;;2.10;;
77322;SDS011;66384;51.052;9.850;2023-04-25T12:56:06;4.00;;;1.50;;
77322;SDS011;66384;51.052;9.850;2023-04-25T12:58:35;5.00;;;2.20;;
77322;SDS011;66384;51.052;9.850;2023-04-25T13:01:04;6.30;;;3.10;;
77322;SDS011;66384;51.052;9.850;2023-04-25T13:03:34;4.70;;;2.00;;
77322;SDS011;66384;51.052;9.850;2023-04-25T13:06:04;6.20;;;2.40;;
77322;SDS011;66384;51.052;9.850;2023-04-25T13:08:34;8.10;;;2.40;;
77322;SDS011;66384;51.052;9.850;2023-04-25T13:11:05;7.50;;;2.20;;
77322;SDS011;66384;51.052;9.850;2023-04-25T13:13:35;5.90;;;2.40;;
77322;SDS011;66384;51.052;9.850;2023-04-25T13:16:04;3.60;;;1.70;;
77322;SDS011;66384;51.052;9.850;2023-04-25T13:18:35;7.60;;;4.80;;
77322;SDS011;66384;51.052;9.850;2023-04-25T13:21:04;4.70;;;2.70;;
77322;SDS011;66384;51.052;9.850;2023-04-25T13:23:34;4.70;;;2.30;;
77322;SDS011;66384;51.052;9.850;2023-04-25T13:26:03;14.50;;;6.10;;
77322;SDS011;66384;51.052;9.850;2023-04-25T13:28:33;7.70;;;3.90;;
77322;SDS011;66384;51.052;9.850;2023-04-25T13:31:02;5.20;;;2.90;;
77322;SDS011;66384;51.052;9.850;2023-04-25T13:33:32;9.70;;;4.70;;
77322;SDS011;66384;51.052;9.850;2023-04-25T13:36:02;3.80;;;2.10;;
77322;SDS011;66384;51.052;9.850;2023-04-25T13:38:32;8.60;;;3.70;;
77322;SDS011;66384;51.052;9.850;2023-04-25T13:41:01;6.70;;;3.40;;
77322;SDS011;66384;51.052;9.850;2023-04-25T13:43:31;9.30;;;4.20;;
77322;SDS011;66384;51.052;9.850;2023-04-25T13:46:01;9.50;;;4.50;;
77322;SDS011;66384;51.052;9.850;2023-04-25T13:48:30;10.30;;;5.20;;
77322;SDS011;66384;51.052;9.850;2023-04-25T13:50:59;9.00;;;4.20;;
77322;SDS011;66384;51.052;9.850;2023-04-25T13:53:29;7.90;;;4.10;;
77322;SDS011;66384;51.052;9.850;2023-04-25T13:55:58;6.90;;;3.20;;
77322;SDS011;66384;51.052;9.850;2023-04-25T13:58:27;7.60;;;3.40;;
77322;SDS011;66384;51.052;9.850;2023-04-25T14:00:57;6.40;;;3.10;;
77322;SDS011;66384;51.052;9.850;2023-04-25T14:03:26;5.70;;;2.80;;
77322;SDS011;66384;51.052;9.850;2023-04-25T14:05:56;6.00;;;2.80;;
77322;SDS011;66384;51.052;9.850;2023-04-25T14:08:25;4.50;;;2.20;;
77322;SDS011;66384;51.052;9.850;2023-04-25T14:10:55;6.60;;;2.70;;
77322;SDS011;66384;51.052;9.850;2023-04-25T14:13:25;6.30;;;2.00;;
77322;SDS011;66384;51.052;9.850;2023-04-25T14:15:54;5.10;;;2.30;;
77322;SDS011;66384;51.052;9.850;2023-04-25T14:18:23;5.10;;;2.30;;
77322;SDS011;66384;51.052;9.850;2023-04-25T14:20:52;5.10;;;2.70;;
77322;SDS011;66384;51.052;9.850;2023-04-25T14:23:21;8.00;;;4.00;;
77322;SDS011;66384;51.052;9.850;2023-04-25T14:25:51;8.70;;;3.80;;
77322;SDS011;66384;51.052;9.850;2023-04-25T14:28:20;5.40;;;3.70;;
77322;SDS011;66384;51.052;9.850;2023-04-25T14:30:49;4.70;;;1.90;;
77322;SDS011;66384;51.052;9.850;2023-04-25T14:33:19;3.90;;;1.90;;
77322;SDS011;66384;51.052;9.850;2023-04-25T14:35:48;3.00;;;1.90;;
77322;SDS011;66384;51.052;9.850;2023-04-25T14:38:17;5.80;;;2.20;;
77322;SDS011;66384;51.052;9.850;2023-04-25T14:40:49;6.20;;;2.30;;
77322;SDS011;66384;51.052;9.850;2023-04-25T14:43:20;6.10;;;2.20;;
77322;SDS011;66384;51.052;9.850;2023-04-25T14:45:49;3.50;;;2.00;;
77322;SDS011;66384;51.052;9.850;2023-04-25T14:48:18;4.80;;;2.00;;
77322;SDS011;66384;51.052;9.850;2023-04-25T14:50:48;4.60;;;2.30;;
77322;SDS011;66384;51.052;9.850;2023-04-25T14:53:17;3.20;;;2.10;;
77322;SDS011;66384;51.052;9.850;2023-04-25T14:55:46;4.00;;;2.00;;
77322;SDS011;66384;51.052;9.850;2023-04-25T14:58:16;4.00;;;2.40;;
77322;SDS011;66384;51.052;9.850;2023-04-25T15:00:46;4.10;;;2.30;;
77322;SDS011;66384;51.052;9.850;2023-04-25T15:03:15;4.90;;;2.10;;
77322;SDS011;66384;51.052;9.850;2023-04-25T15:05:45;5.00;;;2.40;;
77322;SDS011;66384;51.052;9.850;2023-04-25T15:08:14;2.90;;;1.70;;
77322;SDS011;66384;51.052;9.850;2023-04-25T15:10:43;5.70;;;2.00;;
77322;SDS011;66384;51.052;9.850;2023-04-25T15:13:13;6.00;;;2.50;;
77322;SDS011;66384;51.052;9.850;2023-04-25T15:15:42;8.50;;;3.10;;
77322;SDS011;66384;51.052;9.850;2023-04-25T15:18:17;5.70;;;2.70;;
77322;SDS011;66384;51.052;9.850;2023-04-25T15:20:48;4.70;;;2.50;;
77322;SDS011;66384;51.052;9.850;2023-04-25T15:23:19;5.80;;;2.40;;